sensor_id;sensor_type;location;lat;lon;timestamp;temperature;humidity
17208;DHT22;8720;48.488;9.202;2023-04-30T00:00:01;14.30;55.80
17208;DHT22;8720;48.488;9.202;2023-04-30T00:02:36;14.30;55.90
17208;DHT22;8720;48.488;9.202;2023-04-30T00:05:05;14.30;56.10
17208;DHT22;8720;48.488;9.202;2023-04-30T00:07:32;14.30;56.30
17208;DHT22;8720;48.488;9.202;2023-04-30T00:10:00;14.30;56.40
17208;DHT22;8720;48.488;9.202;2023-04-30T00:12:27;14.30;56.50
17208;DHT22;8720;48.488;9.202;2023-04-30T00:14:54;14.30;56.40
17208;DHT22;8720;48.488;9.202;2023-04-30T00:17:22;14.30;56.40
17208;DHT22;8720;48.488;9.202;2023-04-30T00:19:49;14.30;56.50
17208;DHT22;8720;48.488;9.202;2023-04-30T00:22:18;14.30;57.10
17208;DHT22;8720;48.488;9.202;2023-04-30T00:24:45;14.30;56.60
17208;DHT22;8720;48.488;9.202;2023-04-30T00:27:12;14.30;56.60
17208;DHT22;8720;48.488;9.202;2023-04-30T00:29:40;14.20;56.60
17208;DHT22;8720;48.488;9.202;2023-04-30T00:32:07;14.20;56.60
17208;DHT22;8720;48.488;9.202;2023-04-30T00:34:35;14.20;56.60
17208;DHT22;8720;48.488;9.202;2023-04-30T00:37:02;14.30;56.80
17208;DHT22;8720;48.488;9.202;2023-04-30T00:39:31;14.30;56.80
17208;DHT22;8720;48.488;9.202;2023-04-30T00:41:58;14.30;57.00
17208;DHT22;8720;48.488;9.202;2023-04-30T00:44:25;14.30;57.00
17208;DHT22;8720;48.488;9.202;2023-04-30T00:46:52;14.30;57.00
17208;DHT22;8720;48.488;9.202;2023-04-30T00:49:20;14.30;57.00
17208;DHT22;8720;48.488;9.202;2023-04-30T00:51:48;14.30;57.00
17208;DHT22;8720;48.488;9.202;2023-04-30T00:54:19;14.30;57.00
17208;DHT22;8720;48.488;9.202;2023-04-30T00:56:48;14.30;57.00
17208;DHT22;8720;48.488;9.202;2023-04-30T00:59:15;14.30;57.00
17208;DHT22;8720;48.488;9.202;2023-04-30T01:01:43;14.30;57.00
17208;DHT22;8720;48.488;9.202;2023-04-30T01:04:11;14.30;57.00
17208;DHT22;8720;48.488;9.202;2023-04-30T01:06:38;14.30;57.00
17208;DHT22;8720;48.488;9.202;2023-04-30T01:09:06;14.30;57.10
17208;DHT22;8720;48.488;9.202;2023-04-30T01:11:41;14.30;57.10
17208;DHT22;8720;48.488;9.202;2023-04-30T01:14:24;14.20;57.20
17208;DHT22;8720;48.488;9.202;2023-04-30T01:17:01;14.20;57.20
17208;DHT22;8720;48.488;9.202;2023-04-30T01:19:39;14.20;57.20
17208;DHT22;8720;48.488;9.202;2023-04-30T01:22:11;14.20;57.30
17208;DHT22;8720;48.488;9.202;2023-04-30T01:25:04;14.20;57.40
17208;DHT22;8720;48.488;9.202;2023-04-30T01:28:00;14.10;57.30
17208;DHT22;8720;48.488;9.202;2023-04-30T01:30:30;14.10;57.50
17208;DHT22;8720;48.488;9.202;2023-04-30T01:32:58;14.10;57.30
17208;DHT22;8720;48.488;9.202;2023-04-30T01:35:38;14.10;57.50
17208;DHT22;8720;48.488;9.202;2023-04-30T01:38:39;14.00;57.60
17208;DHT22;8720;48.488;9.202;2023-04-30T01:41:23;14.00;57.60
17208;DHT22;8720;48.488;9.202;2023-04-30T01:44:07;14.00;57.60
17208;DHT22;8720;48.488;9.202;2023-04-30T01:46:55;14.00;57.80
17208;DHT22;8720;48.488;9.202;2023-04-30T01:49:36;14.00;57.80
17208;DHT22;8720;48.488;9.202;2023-04-30T01:52:20;14.00;57.80
17208;DHT22;8720;48.488;9.202;2023-04-30T01:54:59;14.00;57.80
17208;DHT22;8720;48.488;9.202;2023-04-30T01:57:32;14.00;57.80
17208;DHT22;8720;48.488;9.202;2023-04-30T02:00:07;14.00;57.90
17208;DHT22;8720;48.488;9.202;2023-04-30T02:05:31;13.90;57.80
17208;DHT22;8720;48.488;9.202;2023-04-30T02:07:59;13.90;57.80
17208;DHT22;8720;48.488;9.202;2023-04-30T02:10:27;13.90;57.80
17208;DHT22;8720;48.488;9.202;2023-04-30T02:12:55;13.90;57.90
17208;DHT22;8720;48.488;9.202;2023-04-30T02:15:24;13.90;57.90
17208;DHT22;8720;48.488;9.202;2023-04-30T02:17:52;13.90;57.90
17208;DHT22;8720;48.488;9.202;2023-04-30T02:20:20;13.80;57.90
17208;DHT22;8720;48.488;9.202;2023-04-30T02:22:47;13.80;57.90
17208;DHT22;8720;48.488;9.202;2023-04-30T02:25:14;13.80;58.00
17208;DHT22;8720;48.488;9.202;2023-04-30T02:27:41;13.70;58.00
17208;DHT22;8720;48.488;9.202;2023-04-30T02:30:09;13.70;58.00
17208;DHT22;8720;48.488;9.202;2023-04-30T02:32:38;13.70;58.10
17208;DHT22;8720;48.488;9.202;2023-04-30T02:35:06;13.60;58.10
17208;DHT22;8720;48.488;9.202;2023-04-30T02:37:34;13.60;58.10
17208;DHT22;8720;48.488;9.202;2023-04-30T02:40:01;13.60;58.20
17208;DHT22;8720;48.488;9.202;2023-04-30T02:42:28;13.50;58.20
17208;DHT22;8720;48.488;9.202;2023-04-30T02:44:56;13.50;58.20
17208;DHT22;8720;48.488;9.202;2023-04-30T02:47:24;13.40;58.20
17208;DHT22;8720;48.488;9.202;2023-04-30T02:49:52;13.40;58.30
17208;DHT22;8720;48.488;9.202;2023-04-30T02:52:19;13.30;58.30
17208;DHT22;8720;48.488;9.202;2023-04-30T02:54:47;13.30;58.30
17208;DHT22;8720;48.488;9.202;2023-04-30T02:57:14;13.30;58.40
17208;DHT22;8720;48.488;9.202;2023-04-30T02:59:41;13.20;58.40
17208;DHT22;8720;48.488;9.202;2023-04-30T03:02:11;13.10;58.50
17208;DHT22;8720;48.488;9.202;2023-04-30T03:04:38;13.10;58.50
17208;DHT22;8720;48.488;9.202;2023-04-30T03:07:07;13.10;58.60
17208;DHT22;8720;48.488;9.202;2023-04-30T03:09:36;13.00;58.60
17208;DHT22;8720;48.488;9.202;2023-04-30T03:12:03;13.00;58.70
17208;DHT22;8720;48.488;9.202;2023-04-30T03:14:31;12.90;58.60
17208;DHT22;8720;48.488;9.202;2023-04-30T03:16:58;12.90;58.80
17208;DHT22;8720;48.488;9.202;2023-04-30T03:19:26;12.80;58.90
17208;DHT22;8720;48.488;9.202;2023-04-30T03:21:54;12.80;59.00
17208;DHT22;8720;48.488;9.202;2023-04-30T03:24:22;12.80;59.20
17208;DHT22;8720;48.488;9.202;2023-04-30T03:26:50;12.70;59.30
17208;DHT22;8720;48.488;9.202;2023-04-30T03:29:18;12.70;59.30
17208;DHT22;8720;48.488;9.202;2023-04-30T03:31:45;12.70;59.50
17208;DHT22;8720;48.488;9.202;2023-04-30T03:34:12;12.60;59.50
17208;DHT22;8720;48.488;9.202;2023-04-30T03:36:40;12.60;59.60
17208;DHT22;8720;48.488;9.202;2023-04-30T03:39:07;12.60;59.70
17208;DHT22;8720;48.488;9.202;2023-04-30T03:41:36;12.60;59.90
17208;DHT22;8720;48.488;9.202;2023-04-30T03:44:04;12.60;60.10
17208;DHT22;8720;48.488;9.202;2023-04-30T03:46:31;12.50;60.00
17208;DHT22;8720;48.488;9.202;2023-04-30T03:48:58;12.50;60.00
17208;DHT22;8720;48.488;9.202;2023-04-30T03:51:26;12.50;60.10
17208;DHT22;8720;48.488;9.202;2023-04-30T03:53:53;12.50;60.20
17208;DHT22;8720;48.488;9.202;2023-04-30T03:56:20;12.40;60.10
17208;DHT22;8720;48.488;9.202;2023-04-30T03:58:49;12.40;60.20
17208;DHT22;8720;48.488;9.202;2023-04-30T04:01:17;12.40;60.30
17208;DHT22;8720;48.488;9.202;2023-04-30T04:03:44;12.30;60.20
17208;DHT22;8720;48.488;9.202;2023-04-30T04:06:12;12.30;60.20
17208;DHT22;8720;48.488;9.202;2023-04-30T04:08:39;12.30;60.30
17208;DHT22;8720;48.488;9.202;2023-04-30T04:11:08;12.20;60.40
17208;DHT22;8720;48.488;9.202;2023-04-30T04:13:35;12.20;60.40
17208;DHT22;8720;48.488;9.202;2023-04-30T04:16:04;12.20;60.30
17208;DHT22;8720;48.488;9.202;2023-04-30T04:18:33;12.20;60.40
17208;DHT22;8720;48.488;9.202;2023-04-30T04:21:01;12.10;60.30
17208;DHT22;8720;48.488;9.202;2023-04-30T04:23:29;12.10;60.50
17208;DHT22;8720;48.488;9.202;2023-04-30T04:25:56;12.10;60.50
17208;DHT22;8720;48.488;9.202;2023-04-30T04:28:25;12.10;60.60
17208;DHT22;8720;48.488;9.202;2023-04-30T04:30:52;12.10;60.70
17208;DHT22;8720;48.488;9.202;2023-04-30T04:33:21;12.10;60.70
17208;DHT22;8720;48.488;9.202;2023-04-30T04:35:49;12.10;61.20
17208;DHT22;8720;48.488;9.202;2023-04-30T04:38:16;12.10;61.70
17208;DHT22;8720;48.488;9.202;2023-04-30T04:40:50;12.30;63.00
17208;DHT22;8720;48.488;9.202;2023-04-30T04:43:18;12.50;62.50
17208;DHT22;8720;48.488;9.202;2023-04-30T04:45:46;12.80;62.40
17208;DHT22;8720;48.488;9.202;2023-04-30T04:48:14;13.00;61.90
17208;DHT22;8720;48.488;9.202;2023-04-30T04:50:42;13.30;61.10
17208;DHT22;8720;48.488;9.202;2023-04-30T04:53:10;13.50;60.40
17208;DHT22;8720;48.488;9.202;2023-04-30T04:55:38;13.60;60.00
17208;DHT22;8720;48.488;9.202;2023-04-30T04:58:05;13.60;59.50
17208;DHT22;8720;48.488;9.202;2023-04-30T05:00:32;13.70;59.30
17208;DHT22;8720;48.488;9.202;2023-04-30T05:03:00;13.80;59.10
17208;DHT22;8720;48.488;9.202;2023-04-30T05:05:28;13.80;58.80
17208;DHT22;8720;48.488;9.202;2023-04-30T05:07:56;13.80;58.70
17208;DHT22;8720;48.488;9.202;2023-04-30T05:10:24;13.90;58.50
17208;DHT22;8720;48.488;9.202;2023-04-30T05:12:51;13.90;58.40
17208;DHT22;8720;48.488;9.202;2023-04-30T05:15:18;14.00;58.40
17208;DHT22;8720;48.488;9.202;2023-04-30T05:17:46;14.00;58.30
17208;DHT22;8720;48.488;9.202;2023-04-30T05:20:13;14.00;58.20
17208;DHT22;8720;48.488;9.202;2023-04-30T05:22:40;14.00;58.00
17208;DHT22;8720;48.488;9.202;2023-04-30T05:25:09;14.00;58.00
17208;DHT22;8720;48.488;9.202;2023-04-30T05:27:36;14.00;58.00
17208;DHT22;8720;48.488;9.202;2023-04-30T05:30:04;14.10;58.00
17208;DHT22;8720;48.488;9.202;2023-04-30T05:32:34;14.00;57.90
17208;DHT22;8720;48.488;9.202;2023-04-30T05:35:01;14.00;57.90
17208;DHT22;8720;48.488;9.202;2023-04-30T05:37:29;14.00;57.80
17208;DHT22;8720;48.488;9.202;2023-04-30T05:39:56;14.00;57.80
17208;DHT22;8720;48.488;9.202;2023-04-30T05:42:25;14.00;58.40
17208;DHT22;8720;48.488;9.202;2023-04-30T05:44:52;13.90;57.50
17208;DHT22;8720;48.488;9.202;2023-04-30T05:47:20;13.90;57.80
17208;DHT22;8720;48.488;9.202;2023-04-30T05:49:47;13.90;57.80
17208;DHT22;8720;48.488;9.202;2023-04-30T05:52:14;13.90;57.80
17208;DHT22;8720;48.488;9.202;2023-04-30T05:54:42;14.00;57.70
17208;DHT22;8720;48.488;9.202;2023-04-30T05:57:10;14.00;57.60
17208;DHT22;8720;48.488;9.202;2023-04-30T05:59:38;14.00;58.20
17208;DHT22;8720;48.488;9.202;2023-04-30T06:02:06;14.10;57.60
17208;DHT22;8720;48.488;9.202;2023-04-30T06:04:33;14.10;57.80
17208;DHT22;8720;48.488;9.202;2023-04-30T06:07:00;14.20;57.80
17208;DHT22;8720;48.488;9.202;2023-04-30T06:09:28;14.40;57.90
17208;DHT22;8720;48.488;9.202;2023-04-30T06:11:55;14.50;57.80
17208;DHT22;8720;48.488;9.202;2023-04-30T06:14:23;14.60;57.50
17208;DHT22;8720;48.488;9.202;2023-04-30T06:16:51;14.70;57.30
17208;DHT22;8720;48.488;9.202;2023-04-30T06:19:19;14.80;56.80
17208;DHT22;8720;48.488;9.202;2023-04-30T06:21:46;15.00;56.90
17208;DHT22;8720;48.488;9.202;2023-04-30T06:24:13;15.10;56.80
17208;DHT22;8720;48.488;9.202;2023-04-30T06:26:41;15.20;56.50
17208;DHT22;8720;48.488;9.202;2023-04-30T06:29:08;15.30;56.30
17208;DHT22;8720;48.488;9.202;2023-04-30T06:31:35;15.40;56.20
17208;DHT22;8720;48.488;9.202;2023-04-30T06:34:04;15.50;56.00
17208;DHT22;8720;48.488;9.202;2023-04-30T06:36:31;15.60;55.70
17208;DHT22;8720;48.488;9.202;2023-04-30T06:38:58;15.70;55.80
17208;DHT22;8720;48.488;9.202;2023-04-30T06:41:25;15.80;55.60
17208;DHT22;8720;48.488;9.202;2023-04-30T06:43:53;15.80;55.10
17208;DHT22;8720;48.488;9.202;2023-04-30T06:46:20;15.90;54.90
17208;DHT22;8720;48.488;9.202;2023-04-30T06:48:48;16.00;54.80
17208;DHT22;8720;48.488;9.202;2023-04-30T06:51:16;16.00;55.10
17208;DHT22;8720;48.488;9.202;2023-04-30T06:53:43;16.10;54.20
17208;DHT22;8720;48.488;9.202;2023-04-30T06:56:14;16.10;54.30
17208;DHT22;8720;48.488;9.202;2023-04-30T06:58:41;16.10;53.80
17208;DHT22;8720;48.488;9.202;2023-04-30T07:01:09;16.20;54.10
17208;DHT22;8720;48.488;9.202;2023-04-30T07:03:37;16.20;53.80
17208;DHT22;8720;48.488;9.202;2023-04-30T07:06:04;16.20;53.60
17208;DHT22;8720;48.488;9.202;2023-04-30T07:08:33;16.20;53.50
17208;DHT22;8720;48.488;9.202;2023-04-30T07:11:00;16.20;53.40
17208;DHT22;8720;48.488;9.202;2023-04-30T07:13:28;16.20;53.40
17208;DHT22;8720;48.488;9.202;2023-04-30T07:15:56;16.20;53.60
17208;DHT22;8720;48.488;9.202;2023-04-30T07:18:24;16.30;53.60
17208;DHT22;8720;48.488;9.202;2023-04-30T07:20:51;16.30;53.70
17208;DHT22;8720;48.488;9.202;2023-04-30T07:23:18;16.40;53.70
17208;DHT22;8720;48.488;9.202;2023-04-30T07:25:47;16.40;53.40
17208;DHT22;8720;48.488;9.202;2023-04-30T07:28:14;16.50;53.10
17208;DHT22;8720;48.488;9.202;2023-04-30T07:30:41;16.60;53.40
17208;DHT22;8720;48.488;9.202;2023-04-30T07:33:08;16.60;53.40
17208;DHT22;8720;48.488;9.202;2023-04-30T07:35:36;16.70;53.40
17208;DHT22;8720;48.488;9.202;2023-04-30T07:38:03;16.90;53.50
17208;DHT22;8720;48.488;9.202;2023-04-30T07:40:30;17.00;53.50
17208;DHT22;8720;48.488;9.202;2023-04-30T07:42:59;17.20;53.30
17208;DHT22;8720;48.488;9.202;2023-04-30T07:45:26;17.40;52.70
17208;DHT22;8720;48.488;9.202;2023-04-30T07:47:53;17.50;52.40
17208;DHT22;8720;48.488;9.202;2023-04-30T07:50:21;17.60;52.10
17208;DHT22;8720;48.488;9.202;2023-04-30T07:52:48;17.70;51.70
17208;DHT22;8720;48.488;9.202;2023-04-30T07:55:15;17.70;51.20
17208;DHT22;8720;48.488;9.202;2023-04-30T07:57:43;17.80;51.10
17208;DHT22;8720;48.488;9.202;2023-04-30T08:00:12;17.80;50.90
17208;DHT22;8720;48.488;9.202;2023-04-30T08:02:40;17.80;50.50
17208;DHT22;8720;48.488;9.202;2023-04-30T08:05:08;17.90;50.70
17208;DHT22;8720;48.488;9.202;2023-04-30T08:07:36;17.90;50.40
17208;DHT22;8720;48.488;9.202;2023-04-30T08:10:05;18.00;50.50
17208;DHT22;8720;48.488;9.202;2023-04-30T08:12:35;18.00;50.50
17208;DHT22;8720;48.488;9.202;2023-04-30T08:15:04;18.10;49.40
17208;DHT22;8720;48.488;9.202;2023-04-30T08:17:34;18.20;49.10
17208;DHT22;8720;48.488;9.202;2023-04-30T08:20:03;18.40;48.70
17208;DHT22;8720;48.488;9.202;2023-04-30T08:22:31;18.50;48.50
17208;DHT22;8720;48.488;9.202;2023-04-30T08:24:59;18.70;48.30
17208;DHT22;8720;48.488;9.202;2023-04-30T08:27:27;18.80;47.60
17208;DHT22;8720;48.488;9.202;2023-04-30T08:29:56;18.90;47.60
17208;DHT22;8720;48.488;9.202;2023-04-30T08:32:23;19.00;46.70
17208;DHT22;8720;48.488;9.202;2023-04-30T08:34:53;19.00;46.50
17208;DHT22;8720;48.488;9.202;2023-04-30T08:37:20;19.10;46.10
17208;DHT22;8720;48.488;9.202;2023-04-30T08:39:47;19.20;46.50
17208;DHT22;8720;48.488;9.202;2023-04-30T08:42:16;19.20;46.00
17208;DHT22;8720;48.488;9.202;2023-04-30T08:44:47;19.30;45.50
17208;DHT22;8720;48.488;9.202;2023-04-30T08:47:15;19.40;45.90
17208;DHT22;8720;48.488;9.202;2023-04-30T08:49:44;19.40;45.00
17208;DHT22;8720;48.488;9.202;2023-04-30T08:52:13;19.50;44.90
17208;DHT22;8720;48.488;9.202;2023-04-30T08:54:41;19.50;44.70
17208;DHT22;8720;48.488;9.202;2023-04-30T08:57:10;19.50;44.70
17208;DHT22;8720;48.488;9.202;2023-04-30T08:59:37;19.50;44.50
17208;DHT22;8720;48.488;9.202;2023-04-30T09:02:05;19.40;43.90
17208;DHT22;8720;48.488;9.202;2023-04-30T09:04:35;19.30;44.00
17208;DHT22;8720;48.488;9.202;2023-04-30T09:07:02;19.20;43.90
17208;DHT22;8720;48.488;9.202;2023-04-30T09:09:37;19.10;43.40
17208;DHT22;8720;48.488;9.202;2023-04-30T09:12:13;19.00;42.90
17208;DHT22;8720;48.488;9.202;2023-04-30T09:14:56;18.90;43.10
17208;DHT22;8720;48.488;9.202;2023-04-30T09:17:25;18.90;43.60
17208;DHT22;8720;48.488;9.202;2023-04-30T09:19:53;18.80;44.00
17208;DHT22;8720;48.488;9.202;2023-04-30T09:22:21;18.70;43.90
17208;DHT22;8720;48.488;9.202;2023-04-30T09:24:50;18.70;43.90
17208;DHT22;8720;48.488;9.202;2023-04-30T09:27:20;18.70;43.80
17208;DHT22;8720;48.488;9.202;2023-04-30T09:29:48;18.70;43.70
17208;DHT22;8720;48.488;9.202;2023-04-30T09:32:15;18.70;43.40
17208;DHT22;8720;48.488;9.202;2023-04-30T09:34:43;18.80;42.90
17208;DHT22;8720;48.488;9.202;2023-04-30T09:37:10;18.80;43.00
17208;DHT22;8720;48.488;9.202;2023-04-30T09:39:50;18.70;42.80
17208;DHT22;8720;48.488;9.202;2023-04-30T09:42:20;18.70;41.60
17208;DHT22;8720;48.488;9.202;2023-04-30T09:44:48;18.70;42.60
17208;DHT22;8720;48.488;9.202;2023-04-30T09:47:17;18.70;42.60
17208;DHT22;8720;48.488;9.202;2023-04-30T09:49:47;18.70;42.40
17208;DHT22;8720;48.488;9.202;2023-04-30T09:52:16;18.70;42.60
17208;DHT22;8720;48.488;9.202;2023-04-30T09:54:46;18.70;41.90
17208;DHT22;8720;48.488;9.202;2023-04-30T09:57:15;18.70;41.70
17208;DHT22;8720;48.488;9.202;2023-04-30T09:59:47;18.80;41.80
17208;DHT22;8720;48.488;9.202;2023-04-30T10:02:18;18.80;41.80
17208;DHT22;8720;48.488;9.202;2023-04-30T10:04:52;18.80;41.80
17208;DHT22;8720;48.488;9.202;2023-04-30T10:07:24;18.80;41.70
17208;DHT22;8720;48.488;9.202;2023-04-30T10:10:02;18.80;41.60
17208;DHT22;8720;48.488;9.202;2023-04-30T10:12:38;18.80;41.70
17208;DHT22;8720;48.488;9.202;2023-04-30T10:15:14;18.80;41.40
17208;DHT22;8720;48.488;9.202;2023-04-30T10:17:51;18.80;41.50
17208;DHT22;8720;48.488;9.202;2023-04-30T10:20:23;18.80;41.80
17208;DHT22;8720;48.488;9.202;2023-04-30T10:22:53;18.80;42.10
17208;DHT22;8720;48.488;9.202;2023-04-30T10:25:21;18.80;42.00
17208;DHT22;8720;48.488;9.202;2023-04-30T10:27:54;18.70;41.90
17208;DHT22;8720;48.488;9.202;2023-04-30T10:30:22;18.70;41.70
17208;DHT22;8720;48.488;9.202;2023-04-30T10:32:54;18.60;42.00
17208;DHT22;8720;48.488;9.202;2023-04-30T10:35:44;18.60;41.20
17208;DHT22;8720;48.488;9.202;2023-04-30T10:38:21;18.60;41.20
17208;DHT22;8720;48.488;9.202;2023-04-30T10:40:54;18.60;41.10
17208;DHT22;8720;48.488;9.202;2023-04-30T10:43:24;18.60;41.60
17208;DHT22;8720;48.488;9.202;2023-04-30T10:45:52;18.50;41.50
17208;DHT22;8720;48.488;9.202;2023-04-30T10:48:22;18.50;41.60
17208;DHT22;8720;48.488;9.202;2023-04-30T10:50:52;18.50;40.90
17208;DHT22;8720;48.488;9.202;2023-04-30T10:53:22;18.50;41.20
17208;DHT22;8720;48.488;9.202;2023-04-30T10:55:53;18.50;41.20
17208;DHT22;8720;48.488;9.202;2023-04-30T10:58:29;18.50;40.90
17208;DHT22;8720;48.488;9.202;2023-04-30T11:01:06;18.60;40.60
17208;DHT22;8720;48.488;9.202;2023-04-30T11:03:38;18.60;40.60
17208;DHT22;8720;48.488;9.202;2023-04-30T11:06:08;18.60;41.10
17208;DHT22;8720;48.488;9.202;2023-04-30T11:08:41;18.70;41.00
17208;DHT22;8720;48.488;9.202;2023-04-30T11:11:11;18.80;41.10
17208;DHT22;8720;48.488;9.202;2023-04-30T11:13:57;18.90;41.10
17208;DHT22;8720;48.488;9.202;2023-04-30T11:16:28;19.10;41.00
17208;DHT22;8720;48.488;9.202;2023-04-30T11:19:04;19.20;40.70
17208;DHT22;8720;48.488;9.202;2023-04-30T11:21:32;19.20;39.90
17208;DHT22;8720;48.488;9.202;2023-04-30T11:24:02;19.20;40.50
17208;DHT22;8720;48.488;9.202;2023-04-30T11:26:29;19.30;40.30
17208;DHT22;8720;48.488;9.202;2023-04-30T11:29:31;19.30;40.60
17208;DHT22;8720;48.488;9.202;2023-04-30T11:31:59;19.30;40.20
17208;DHT22;8720;48.488;9.202;2023-04-30T11:34:28;19.30;40.20
17208;DHT22;8720;48.488;9.202;2023-04-30T11:36:58;19.20;39.90
17208;DHT22;8720;48.488;9.202;2023-04-30T11:39:27;19.20;39.60
17208;DHT22;8720;48.488;9.202;2023-04-30T11:42:00;19.30;40.00
17208;DHT22;8720;48.488;9.202;2023-04-30T11:44:28;19.30;39.60
17208;DHT22;8720;48.488;9.202;2023-04-30T11:46:57;19.30;40.10
17208;DHT22;8720;48.488;9.202;2023-04-30T11:49:26;19.40;40.00
17208;DHT22;8720;48.488;9.202;2023-04-30T11:51:53;19.40;39.90
17208;DHT22;8720;48.488;9.202;2023-04-30T11:54:21;19.40;39.70
17208;DHT22;8720;48.488;9.202;2023-04-30T11:56:48;19.40;39.60
17208;DHT22;8720;48.488;9.202;2023-04-30T11:59:17;19.40;39.60
17208;DHT22;8720;48.488;9.202;2023-04-30T12:01:45;19.40;39.40
17208;DHT22;8720;48.488;9.202;2023-04-30T12:04:14;19.40;39.70
17208;DHT22;8720;48.488;9.202;2023-04-30T12:06:44;19.40;39.40
17208;DHT22;8720;48.488;9.202;2023-04-30T12:09:11;19.40;39.60
17208;DHT22;8720;48.488;9.202;2023-04-30T12:11:38;19.40;39.10
17208;DHT22;8720;48.488;9.202;2023-04-30T12:14:07;19.40;39.40
17208;DHT22;8720;48.488;9.202;2023-04-30T12:16:40;19.50;39.60
17208;DHT22;8720;48.488;9.202;2023-04-30T12:19:15;19.50;39.10
17208;DHT22;8720;48.488;9.202;2023-04-30T12:21:44;19.60;39.00
17208;DHT22;8720;48.488;9.202;2023-04-30T12:24:13;19.60;39.30
17208;DHT22;8720;48.488;9.202;2023-04-30T12:26:42;19.70;39.30
17208;DHT22;8720;48.488;9.202;2023-04-30T12:29:13;19.70;38.80
17208;DHT22;8720;48.488;9.202;2023-04-30T12:31:42;19.80;38.40
17208;DHT22;8720;48.488;9.202;2023-04-30T12:34:11;19.80;38.40
17208;DHT22;8720;48.488;9.202;2023-04-30T12:36:41;19.80;38.50
17208;DHT22;8720;48.488;9.202;2023-04-30T12:39:09;19.80;38.30
17208;DHT22;8720;48.488;9.202;2023-04-30T12:41:39;19.80;38.20
17208;DHT22;8720;48.488;9.202;2023-04-30T12:44:15;19.90;38.00
17208;DHT22;8720;48.488;9.202;2023-04-30T12:46:44;19.90;37.60
17208;DHT22;8720;48.488;9.202;2023-04-30T12:49:21;19.90;38.20
17208;DHT22;8720;48.488;9.202;2023-04-30T12:51:57;20.00;37.60
17208;DHT22;8720;48.488;9.202;2023-04-30T12:54:26;20.10;38.20
17208;DHT22;8720;48.488;9.202;2023-04-30T12:56:58;20.10;37.70
17208;DHT22;8720;48.488;9.202;2023-04-30T12:59:28;20.20;37.30
17208;DHT22;8720;48.488;9.202;2023-04-30T13:02:05;20.20;37.60
17208;DHT22;8720;48.488;9.202;2023-04-30T13:04:33;20.10;36.40
17208;DHT22;8720;48.488;9.202;2023-04-30T13:07:03;20.20;37.00
17208;DHT22;8720;48.488;9.202;2023-04-30T13:09:31;20.10;37.10
17208;DHT22;8720;48.488;9.202;2023-04-30T13:11:59;20.10;38.30
17208;DHT22;8720;48.488;9.202;2023-04-30T13:14:27;20.00;37.30
17208;DHT22;8720;48.488;9.202;2023-04-30T13:16:54;20.10;38.00
17208;DHT22;8720;48.488;9.202;2023-04-30T13:19:22;20.10;37.50
17208;DHT22;8720;48.488;9.202;2023-04-30T13:21:49;20.10;37.70
17208;DHT22;8720;48.488;9.202;2023-04-30T13:24:18;20.10;37.20
17208;DHT22;8720;48.488;9.202;2023-04-30T13:26:45;20.20;37.20
17208;DHT22;8720;48.488;9.202;2023-04-30T13:29:13;20.10;37.20
17208;DHT22;8720;48.488;9.202;2023-04-30T13:31:41;20.10;37.00
17208;DHT22;8720;48.488;9.202;2023-04-30T13:34:08;20.10;36.70
17208;DHT22;8720;48.488;9.202;2023-04-30T13:36:35;20.10;36.90
17208;DHT22;8720;48.488;9.202;2023-04-30T13:39:03;20.10;37.10
17208;DHT22;8720;48.488;9.202;2023-04-30T13:41:32;20.10;37.50
17208;DHT22;8720;48.488;9.202;2023-04-30T13:44:00;20.10;37.10
17208;DHT22;8720;48.488;9.202;2023-04-30T13:46:28;20.10;37.10
17208;DHT22;8720;48.488;9.202;2023-04-30T13:48:55;20.20;37.20
17208;DHT22;8720;48.488;9.202;2023-04-30T13:51:23;20.10;37.30
17208;DHT22;8720;48.488;9.202;2023-04-30T13:53:50;20.20;37.40
17208;DHT22;8720;48.488;9.202;2023-04-30T13:56:17;20.20;37.20
17208;DHT22;8720;48.488;9.202;2023-04-30T13:58:46;20.30;37.70
17208;DHT22;8720;48.488;9.202;2023-04-30T14:01:13;20.30;37.20
17208;DHT22;8720;48.488;9.202;2023-04-30T14:03:40;20.40;37.40
17208;DHT22;8720;48.488;9.202;2023-04-30T14:06:08;20.40;37.00
17208;DHT22;8720;48.488;9.202;2023-04-30T14:08:35;20.40;37.10
17208;DHT22;8720;48.488;9.202;2023-04-30T14:11:03;20.40;37.70
17208;DHT22;8720;48.488;9.202;2023-04-30T14:13:30;20.40;37.00
17208;DHT22;8720;48.488;9.202;2023-04-30T14:15:58;20.40;36.90
17208;DHT22;8720;48.488;9.202;2023-04-30T14:18:26;20.40;36.80
17208;DHT22;8720;48.488;9.202;2023-04-30T14:20:54;20.30;36.90
17208;DHT22;8720;48.488;9.202;2023-04-30T14:23:21;20.30;37.00
17208;DHT22;8720;48.488;9.202;2023-04-30T14:25:48;20.20;36.80
17208;DHT22;8720;48.488;9.202;2023-04-30T14:28:16;20.20;36.80
17208;DHT22;8720;48.488;9.202;2023-04-30T14:30:43;20.20;36.80
17208;DHT22;8720;48.488;9.202;2023-04-30T14:33:12;20.20;37.20
17208;DHT22;8720;48.488;9.202;2023-04-30T14:35:39;20.20;36.70
17208;DHT22;8720;48.488;9.202;2023-04-30T14:38:07;20.20;36.90
17208;DHT22;8720;48.488;9.202;2023-04-30T14:40:34;20.20;36.70
17208;DHT22;8720;48.488;9.202;2023-04-30T14:43:02;20.20;36.80
17208;DHT22;8720;48.488;9.202;2023-04-30T14:45:29;20.20;36.80
17208;DHT22;8720;48.488;9.202;2023-04-30T14:47:58;20.20;36.40
17208;DHT22;8720;48.488;9.202;2023-04-30T14:50:27;20.20;36.10
17208;DHT22;8720;48.488;9.202;2023-04-30T14:52:55;20.20;36.30
17208;DHT22;8720;48.488;9.202;2023-04-30T14:55:22;20.10;36.00
17208;DHT22;8720;48.488;9.202;2023-04-30T14:57:49;20.10;35.80
17208;DHT22;8720;48.488;9.202;2023-04-30T15:00:17;20.00;35.90
17208;DHT22;8720;48.488;9.202;2023-04-30T15:02:44;20.00;36.20
17208;DHT22;8720;48.488;9.202;2023-04-30T15:05:13;20.10;36.40
17208;DHT22;8720;48.488;9.202;2023-04-30T15:07:42;20.10;35.90
17208;DHT22;8720;48.488;9.202;2023-04-30T15:10:10;20.10;35.60
17208;DHT22;8720;48.488;9.202;2023-04-30T15:12:37;20.10;36.00
17208;DHT22;8720;48.488;9.202;2023-04-30T15:15:06;20.10;35.60
17208;DHT22;8720;48.488;9.202;2023-04-30T15:17:34;20.10;35.60
17208;DHT22;8720;48.488;9.202;2023-04-30T15:20:02;20.10;36.00
17208;DHT22;8720;48.488;9.202;2023-04-30T15:22:30;20.00;35.90
17208;DHT22;8720;48.488;9.202;2023-04-30T15:24:59;20.10;36.10
17208;DHT22;8720;48.488;9.202;2023-04-30T15:27:27;20.10;35.60
17208;DHT22;8720;48.488;9.202;2023-04-30T15:29:54;20.10;35.80
17208;DHT22;8720;48.488;9.202;2023-04-30T15:32:22;20.00;35.50
17208;DHT22;8720;48.488;9.202;2023-04-30T15:34:49;20.00;35.90
17208;DHT22;8720;48.488;9.202;2023-04-30T15:37:16;19.90;35.90
17208;DHT22;8720;48.488;9.202;2023-04-30T15:39:43;19.90;35.70
17208;DHT22;8720;48.488;9.202;2023-04-30T15:42:12;19.90;35.70
17208;DHT22;8720;48.488;9.202;2023-04-30T15:44:39;19.90;35.80
17208;DHT22;8720;48.488;9.202;2023-04-30T15:47:07;19.90;36.00
17208;DHT22;8720;48.488;9.202;2023-04-30T15:49:34;19.80;35.80
17208;DHT22;8720;48.488;9.202;2023-04-30T15:52:01;19.80;35.90
17208;DHT22;8720;48.488;9.202;2023-04-30T15:54:29;19.90;36.10
17208;DHT22;8720;48.488;9.202;2023-04-30T15:56:56;19.80;35.90
17208;DHT22;8720;48.488;9.202;2023-04-30T15:59:25;19.90;35.70